sensor_id;sensor_type;location;lat;lon;timestamp;temperature;humidity
67182;DHT22;54114;53.524;49.396;2022-12-11T00:02:09;-4.20;55.40
67182;DHT22;54114;53.524;49.396;2022-12-11T00:04:35;-4.20;55.90
67182;DHT22;54114;53.524;49.396;2022-12-11T00:07:01;-4.20;56.90
67182;DHT22;54114;53.524;49.396;2022-12-11T00:09:28;-4.20;58.00
67182;DHT22;54114;53.524;49.396;2022-12-11T00:11:54;-4.20;59.60
67182;DHT22;54114;53.524;49.396;2022-12-11T00:14:21;-4.20;60.90
67182;DHT22;54114;53.524;49.396;2022-12-11T00:16:47;-4.10;61.80
67182;DHT22;54114;53.524;49.396;2022-12-11T00:19:14;-4.10;62.50
67182;DHT22;54114;53.524;49.396;2022-12-11T00:21:40;-4.10;63.10
67182;DHT22;54114;53.524;49.396;2022-12-11T00:24:07;-4.10;64.00
67182;DHT22;54114;53.524;49.396;2022-12-11T00:26:33;-4.10;64.50
67182;DHT22;54114;53.524;49.396;2022-12-11T00:29:00;-4.00;64.60
67182;DHT22;54114;53.524;49.396;2022-12-11T00:31:26;-4.00;65.90
67182;DHT22;54114;53.524;49.396;2022-12-11T00:33:52;-4.00;65.90
67182;DHT22;54114;53.524;49.396;2022-12-11T00:36:22;-4.00;66.30
67182;DHT22;54114;53.524;49.396;2022-12-11T00:38:50;-4.10;66.90
67182;DHT22;54114;53.524;49.396;2022-12-11T00:41:17;-4.00;67.30
67182;DHT22;54114;53.524;49.396;2022-12-11T00:43:44;-4.00;67.10
67182;DHT22;54114;53.524;49.396;2022-12-11T00:46:10;-3.90;66.90
67182;DHT22;54114;53.524;49.396;2022-12-11T00:48:37;-3.90;66.70
67182;DHT22;54114;53.524;49.396;2022-12-11T00:51:04;-3.90;66.50
67182;DHT22;54114;53.524;49.396;2022-12-11T00:53:31;-3.90;66.30
67182;DHT22;54114;53.524;49.396;2022-12-11T00:55:57;-3.90;66.20
67182;DHT22;54114;53.524;49.396;2022-12-11T00:58:24;-3.90;65.90
67182;DHT22;54114;53.524;49.396;2022-12-11T01:00:50;-4.00;65.60
67182;DHT22;54114;53.524;49.396;2022-12-11T01:03:17;-4.00;65.70
67182;DHT22;54114;53.524;49.396;2022-12-11T01:05:53;-4.10;65.80
67182;DHT22;54114;53.524;49.396;2022-12-11T01:08:20;-4.10;65.80
67182;DHT22;54114;53.524;49.396;2022-12-11T01:10:47;-4.10;66.30
67182;DHT22;54114;53.524;49.396;2022-12-11T01:13:13;-4.10;66.20
67182;DHT22;54114;53.524;49.396;2022-12-11T01:15:41;-4.20;66.30
67182;DHT22;54114;53.524;49.396;2022-12-11T01:18:12;-4.20;66.50
67182;DHT22;54114;53.524;49.396;2022-12-11T01:20:39;-4.30;66.50
67182;DHT22;54114;53.524;49.396;2022-12-11T01:23:07;-4.30;66.50
67182;DHT22;54114;53.524;49.396;2022-12-11T01:25:34;-4.30;66.50
67182;DHT22;54114;53.524;49.396;2022-12-11T01:28:02;-4.30;66.40
67182;DHT22;54114;53.524;49.396;2022-12-11T01:30:29;-4.30;66.30
67182;DHT22;54114;53.524;49.396;2022-12-11T01:32:56;-4.40;66.10
67182;DHT22;54114;53.524;49.396;2022-12-11T01:35:22;-4.40;66.00
67182;DHT22;54114;53.524;49.396;2022-12-11T01:37:48;-4.40;65.80
67182;DHT22;54114;53.524;49.396;2022-12-11T01:40:16;-4.40;65.70
67182;DHT22;54114;53.524;49.396;2022-12-11T01:42:43;-4.50;65.50
67182;DHT22;54114;53.524;49.396;2022-12-11T01:45:24;-4.60;65.40
67182;DHT22;54114;53.524;49.396;2022-12-11T01:47:59;-4.60;65.50
67182;DHT22;54114;53.524;49.396;2022-12-11T01:50:29;-4.60;65.50
67182;DHT22;54114;53.524;49.396;2022-12-11T01:52:57;-4.70;65.50
67182;DHT22;54114;53.524;49.396;2022-12-11T01:55:23;-4.70;66.10
67182;DHT22;54114;53.524;49.396;2022-12-11T01:57:50;-4.70;65.70
67182;DHT22;54114;53.524;49.396;2022-12-11T02:00:17;-4.80;65.70
67182;DHT22;54114;53.524;49.396;2022-12-11T02:02:45;-4.80;65.80
67182;DHT22;54114;53.524;49.396;2022-12-11T02:05:11;-4.80;66.20
67182;DHT22;54114;53.524;49.396;2022-12-11T02:07:38;-4.70;66.50
67182;DHT22;54114;53.524;49.396;2022-12-11T02:10:08;-4.70;66.70
67182;DHT22;54114;53.524;49.396;2022-12-11T02:12:49;-4.70;67.50
67182;DHT22;54114;53.524;49.396;2022-12-11T02:15:35;-4.60;68.20
67182;DHT22;54114;53.524;49.396;2022-12-11T02:20:57;-4.40;69.70
67182;DHT22;54114;53.524;49.396;2022-12-11T02:29:00;-4.30;71.20
67182;DHT22;54114;53.524;49.396;2022-12-11T02:32:02;-4.20;71.60
67182;DHT22;54114;53.524;49.396;2022-12-11T02:34:33;-4.10;72.50
67182;DHT22;54114;53.524;49.396;2022-12-11T02:37:05;-4.00;72.90
67182;DHT22;54114;53.524;49.396;2022-12-11T02:39:34;-4.00;73.30
67182;DHT22;54114;53.524;49.396;2022-12-11T02:42:04;-3.90;73.40
67182;DHT22;54114;53.524;49.396;2022-12-11T02:44:32;-3.90;74.00
67182;DHT22;54114;53.524;49.396;2022-12-11T02:46:59;-3.80;73.90
67182;DHT22;54114;53.524;49.396;2022-12-11T02:49:28;-3.70;74.20
67182;DHT22;54114;53.524;49.396;2022-12-11T02:51:56;-3.70;74.60
67182;DHT22;54114;53.524;49.396;2022-12-11T02:54:28;-3.60;74.90
67182;DHT22;54114;53.524;49.396;2022-12-11T02:57:01;-3.50;74.80
67182;DHT22;54114;53.524;49.396;2022-12-11T02:59:36;-3.50;74.80
67182;DHT22;54114;53.524;49.396;2022-12-11T03:02:03;-3.50;74.70
67182;DHT22;54114;53.524;49.396;2022-12-11T03:04:31;-3.40;75.20
67182;DHT22;54114;53.524;49.396;2022-12-11T03:07:00;-3.40;74.60
67182;DHT22;54114;53.524;49.396;2022-12-11T03:09:37;-3.40;74.50
67182;DHT22;54114;53.524;49.396;2022-12-11T03:12:05;-3.40;74.50
67182;DHT22;54114;53.524;49.396;2022-12-11T03:14:33;-3.40;74.60
67182;DHT22;54114;53.524;49.396;2022-12-11T03:17:05;-3.40;74.90
67182;DHT22;54114;53.524;49.396;2022-12-11T03:19:40;-3.40;75.00
67182;DHT22;54114;53.524;49.396;2022-12-11T03:22:09;-3.40;74.70
67182;DHT22;54114;53.524;49.396;2022-12-11T03:25:25;-3.40;74.40
67182;DHT22;54114;53.524;49.396;2022-12-11T03:27:29;-3.40;74.10
67182;DHT22;54114;53.524;49.396;2022-12-11T03:30:05;-3.40;73.40
67182;DHT22;54114;53.524;49.396;2022-12-11T03:32:37;-3.50;73.00
67182;DHT22;54114;53.524;49.396;2022-12-11T03:35:14;-3.60;72.60
67182;DHT22;54114;53.524;49.396;2022-12-11T03:37:43;-3.60;71.40
67182;DHT22;54114;53.524;49.396;2022-12-11T03:40:11;-3.70;71.10
67182;DHT22;54114;53.524;49.396;2022-12-11T03:42:39;-3.80;70.90
67182;DHT22;54114;53.524;49.396;2022-12-11T03:45:08;-3.90;71.10
67182;DHT22;54114;53.524;49.396;2022-12-11T03:47:35;-4.00;71.20
67182;DHT22;54114;53.524;49.396;2022-12-11T03:50:02;-4.00;71.50
67182;DHT22;54114;53.524;49.396;2022-12-11T03:52:30;-4.00;71.50
67182;DHT22;54114;53.524;49.396;2022-12-11T03:54:58;-4.00;71.70
67182;DHT22;54114;53.524;49.396;2022-12-11T03:57:28;-4.00;72.10
67182;DHT22;54114;53.524;49.396;2022-12-11T03:59:56;-4.00;72.50
67182;DHT22;54114;53.524;49.396;2022-12-11T04:02:23;-3.90;72.80
67182;DHT22;54114;53.524;49.396;2022-12-11T04:04:49;-3.90;72.80
67182;DHT22;54114;53.524;49.396;2022-12-11T04:07:15;-3.80;72.80
67182;DHT22;54114;53.524;49.396;2022-12-11T04:09:42;-3.70;72.50
67182;DHT22;54114;53.524;49.396;2022-12-11T04:12:08;-3.70;72.10
67182;DHT22;54114;53.524;49.396;2022-12-11T04:14:35;-3.60;71.80
67182;DHT22;54114;53.524;49.396;2022-12-11T04:17:20;-3.50;71.70
67182;DHT22;54114;53.524;49.396;2022-12-11T04:20:05;-3.50;71.30
67182;DHT22;54114;53.524;49.396;2022-12-11T04:22:50;-3.40;70.80
67182;DHT22;54114;53.524;49.396;2022-12-11T04:25:35;-3.40;70.40
67182;DHT22;54114;53.524;49.396;2022-12-11T04:28:01;-3.30;69.90
67182;DHT22;54114;53.524;49.396;2022-12-11T04:30:27;-3.30;69.90
67182;DHT22;54114;53.524;49.396;2022-12-11T04:32:54;-3.30;69.70
67182;DHT22;54114;53.524;49.396;2022-12-11T04:35:20;-3.20;69.30
67182;DHT22;54114;53.524;49.396;2022-12-11T04:37:47;-3.20;68.70
67182;DHT22;54114;53.524;49.396;2022-12-11T04:40:15;-3.20;68.20
67182;DHT22;54114;53.524;49.396;2022-12-11T04:42:42;-3.20;68.10
67182;DHT22;54114;53.524;49.396;2022-12-11T04:45:09;-3.10;67.90
67182;DHT22;54114;53.524;49.396;2022-12-11T04:47:37;-3.10;67.40
67182;DHT22;54114;53.524;49.396;2022-12-11T04:50:04;-3.10;67.40
67182;DHT22;54114;53.524;49.396;2022-12-11T04:52:33;-3.10;67.30
67182;DHT22;54114;53.524;49.396;2022-12-11T04:54:59;-3.00;67.10
67182;DHT22;54114;53.524;49.396;2022-12-11T04:57:26;-3.00;66.80
67182;DHT22;54114;53.524;49.396;2022-12-11T04:59:52;-2.90;66.60
67182;DHT22;54114;53.524;49.396;2022-12-11T05:02:18;-2.90;66.30
67182;DHT22;54114;53.524;49.396;2022-12-11T05:04:45;-2.90;66.10
67182;DHT22;54114;53.524;49.396;2022-12-11T05:07:11;-2.90;66.10
67182;DHT22;54114;53.524;49.396;2022-12-11T05:09:38;-2.80;66.10
67182;DHT22;54114;53.524;49.396;2022-12-11T05:12:04;-2.80;66.00
67182;DHT22;54114;53.524;49.396;2022-12-11T05:14:30;-2.70;66.10
67182;DHT22;54114;53.524;49.396;2022-12-11T05:16:57;-2.60;65.80
67182;DHT22;54114;53.524;49.396;2022-12-11T05:19:24;-2.60;65.40
67182;DHT22;54114;53.524;49.396;2022-12-11T05:21:51;-2.60;65.00
67182;DHT22;54114;53.524;49.396;2022-12-11T05:24:18;-2.50;64.60
67182;DHT22;54114;53.524;49.396;2022-12-11T05:26:44;-2.50;64.20
67182;DHT22;54114;53.524;49.396;2022-12-11T05:29:10;-2.50;63.50
67182;DHT22;54114;53.524;49.396;2022-12-11T05:31:37;-2.50;63.20
67182;DHT22;54114;53.524;49.396;2022-12-11T05:34:03;-2.50;63.10
67182;DHT22;54114;53.524;49.396;2022-12-11T05:36:30;-2.40;63.20
67182;DHT22;54114;53.524;49.396;2022-12-11T05:38:58;-2.40;63.20
67182;DHT22;54114;53.524;49.396;2022-12-11T05:41:26;-2.30;62.90
67182;DHT22;54114;53.524;49.396;2022-12-11T05:43:53;-2.30;62.50
67182;DHT22;54114;53.524;49.396;2022-12-11T05:46:21;-2.30;62.10
67182;DHT22;54114;53.524;49.396;2022-12-11T05:48:55;-2.20;61.90
67182;DHT22;54114;53.524;49.396;2022-12-11T05:51:22;-2.20;61.50
67182;DHT22;54114;53.524;49.396;2022-12-11T05:53:49;-2.20;61.10
67182;DHT22;54114;53.524;49.396;2022-12-11T05:56:17;-2.20;60.70
67182;DHT22;54114;53.524;49.396;2022-12-11T05:58:45;-2.20;60.10
67182;DHT22;54114;53.524;49.396;2022-12-11T06:01:16;-2.30;59.20
67182;DHT22;54114;53.524;49.396;2022-12-11T06:03:44;-2.40;59.20
67182;DHT22;54114;53.524;49.396;2022-12-11T06:06:10;-2.40;59.20
67182;DHT22;54114;53.524;49.396;2022-12-11T06:08:37;-2.40;59.10
67182;DHT22;54114;53.524;49.396;2022-12-11T06:11:03;-2.40;58.50
67182;DHT22;54114;53.524;49.396;2022-12-11T06:13:30;-2.50;58.40
67182;DHT22;54114;53.524;49.396;2022-12-11T06:16:01;-2.50;58.50
67182;DHT22;54114;53.524;49.396;2022-12-11T06:18:28;-2.50;58.40
67182;DHT22;54114;53.524;49.396;2022-12-11T06:20:54;-2.60;58.30
67182;DHT22;54114;53.524;49.396;2022-12-11T06:23:21;-2.60;58.40
67182;DHT22;54114;53.524;49.396;2022-12-11T06:25:47;-2.60;58.40
67182;DHT22;54114;53.524;49.396;2022-12-11T06:28:14;-2.60;58.50
67182;DHT22;54114;53.524;49.396;2022-12-11T06:30:40;-2.60;58.50
67182;DHT22;54114;53.524;49.396;2022-12-11T06:33:06;-2.60;58.70
67182;DHT22;54114;53.524;49.396;2022-12-11T06:35:33;-2.60;58.90
67182;DHT22;54114;53.524;49.396;2022-12-11T06:37:59;-2.60;59.10
67182;DHT22;54114;53.524;49.396;2022-12-11T06:40:26;-2.50;59.20
67182;DHT22;54114;53.524;49.396;2022-12-11T06:42:53;-2.50;59.20
67182;DHT22;54114;53.524;49.396;2022-12-11T06:45:19;-2.40;59.20
67182;DHT22;54114;53.524;49.396;2022-12-11T06:47:46;-2.40;59.10
67182;DHT22;54114;53.524;49.396;2022-12-11T06:50:12;-2.30;59.20
67182;DHT22;54114;53.524;49.396;2022-12-11T06:52:38;-2.30;59.20
67182;DHT22;54114;53.524;49.396;2022-12-11T06:55:05;-2.20;59.30
67182;DHT22;54114;53.524;49.396;2022-12-11T06:57:32;-2.20;59.20
67182;DHT22;54114;53.524;49.396;2022-12-11T06:59:59;-2.10;59.00
67182;DHT22;54114;53.524;49.396;2022-12-11T07:02:25;-2.00;58.70
67182;DHT22;54114;53.524;49.396;2022-12-11T07:04:51;-2.00;58.50
67182;DHT22;54114;53.524;49.396;2022-12-11T07:07:18;-1.90;58.50
67182;DHT22;54114;53.524;49.396;2022-12-11T07:09:45;-1.90;58.00
67182;DHT22;54114;53.524;49.396;2022-12-11T07:12:11;-1.80;57.80
67182;DHT22;54114;53.524;49.396;2022-12-11T07:14:38;-1.80;57.40
67182;DHT22;54114;53.524;49.396;2022-12-11T07:17:04;-1.70;57.10
67182;DHT22;54114;53.524;49.396;2022-12-11T07:19:30;-1.70;57.10
67182;DHT22;54114;53.524;49.396;2022-12-11T07:21:57;-1.70;56.60
67182;DHT22;54114;53.524;49.396;2022-12-11T07:24:26;-1.70;56.60
67182;DHT22;54114;53.524;49.396;2022-12-11T07:26:52;-1.70;56.60
67182;DHT22;54114;53.524;49.396;2022-12-11T07:29:19;-1.60;56.40
67182;DHT22;54114;53.524;49.396;2022-12-11T07:31:45;-1.60;56.40
67182;DHT22;54114;53.524;49.396;2022-12-11T07:34:12;-1.50;56.00
67182;DHT22;54114;53.524;49.396;2022-12-11T07:36:39;-1.50;55.60
67182;DHT22;54114;53.524;49.396;2022-12-11T07:39:05;-1.50;55.50
67182;DHT22;54114;53.524;49.396;2022-12-11T07:41:33;-1.50;55.60
67182;DHT22;54114;53.524;49.396;2022-12-11T07:44:00;-1.40;55.20
67182;DHT22;54114;53.524;49.396;2022-12-11T07:46:28;-1.40;54.90
67182;DHT22;54114;53.524;49.396;2022-12-11T07:48:55;-1.40;54.70
67182;DHT22;54114;53.524;49.396;2022-12-11T07:51:22;-1.50;54.50
67182;DHT22;54114;53.524;49.396;2022-12-11T07:53:53;-1.50;54.80
67182;DHT22;54114;53.524;49.396;2022-12-11T07:56:21;-1.60;54.80
67182;DHT22;54114;53.524;49.396;2022-12-11T07:58:47;-1.60;54.80
67182;DHT22;54114;53.524;49.396;2022-12-11T08:01:15;-1.60;55.00
67182;DHT22;54114;53.524;49.396;2022-12-11T08:03:42;-1.60;55.00
67182;DHT22;54114;53.524;49.396;2022-12-11T08:06:09;-1.60;55.10
67182;DHT22;54114;53.524;49.396;2022-12-11T08:08:36;-1.50;55.30
67182;DHT22;54114;53.524;49.396;2022-12-11T08:11:04;-1.40;54.90
67182;DHT22;54114;53.524;49.396;2022-12-11T08:13:31;-1.40;54.80
67182;DHT22;54114;53.524;49.396;2022-12-11T08:15:58;-1.30;55.10
67182;DHT22;54114;53.524;49.396;2022-12-11T08:18:24;-1.30;55.20
67182;DHT22;54114;53.524;49.396;2022-12-11T08:20:51;-1.20;55.40
67182;DHT22;54114;53.524;49.396;2022-12-11T08:23:17;-1.10;55.50
67182;DHT22;54114;53.524;49.396;2022-12-11T08:25:43;-0.90;55.60
67182;DHT22;54114;53.524;49.396;2022-12-11T08:28:10;-0.90;55.70
67182;DHT22;54114;53.524;49.396;2022-12-11T08:30:39;-0.80;55.80
67182;DHT22;54114;53.524;49.396;2022-12-11T08:33:06;-0.80;56.10
67182;DHT22;54114;53.524;49.396;2022-12-11T08:35:32;-0.80;56.20
67182;DHT22;54114;53.524;49.396;2022-12-11T08:38:04;-0.80;56.30
67182;DHT22;54114;53.524;49.396;2022-12-11T08:40:30;-0.80;56.60
67182;DHT22;54114;53.524;49.396;2022-12-11T08:42:57;-0.80;57.20
67182;DHT22;54114;53.524;49.396;2022-12-11T08:45:23;-0.90;57.30
67182;DHT22;54114;53.524;49.396;2022-12-11T08:47:50;-0.90;57.40
67182;DHT22;54114;53.524;49.396;2022-12-11T08:50:16;-0.90;57.60
67182;DHT22;54114;53.524;49.396;2022-12-11T08:52:42;-0.90;57.60
67182;DHT22;54114;53.524;49.396;2022-12-11T08:55:09;-1.00;57.80
67182;DHT22;54114;53.524;49.396;2022-12-11T08:57:35;-1.00;58.10
67182;DHT22;54114;53.524;49.396;2022-12-11T09:00:05;-1.10;58.70
67182;DHT22;54114;53.524;49.396;2022-12-11T09:02:32;-1.10;59.40
67182;DHT22;54114;53.524;49.396;2022-12-11T09:04:59;-1.20;59.80
67182;DHT22;54114;53.524;49.396;2022-12-11T09:07:25;-1.20;60.20
67182;DHT22;54114;53.524;49.396;2022-12-11T09:09:55;-1.30;60.50
67182;DHT22;54114;53.524;49.396;2022-12-11T09:12:21;-1.30;60.90
67182;DHT22;54114;53.524;49.396;2022-12-11T09:14:47;-1.30;61.30
67182;DHT22;54114;53.524;49.396;2022-12-11T09:17:14;-1.30;61.60
67182;DHT22;54114;53.524;49.396;2022-12-11T09:19:40;-1.30;62.30
67182;DHT22;54114;53.524;49.396;2022-12-11T09:22:07;-1.30;62.50
67182;DHT22;54114;53.524;49.396;2022-12-11T09:24:36;-1.30;62.70
67182;DHT22;54114;53.524;49.396;2022-12-11T09:27:03;-1.20;63.20
67182;DHT22;54114;53.524;49.396;2022-12-11T09:29:30;-1.20;63.00
67182;DHT22;54114;53.524;49.396;2022-12-11T09:31:57;-1.20;63.00
67182;DHT22;54114;53.524;49.396;2022-12-11T09:34:23;-1.20;63.10
67182;DHT22;54114;53.524;49.396;2022-12-11T09:36:50;-1.10;63.10
67182;DHT22;54114;53.524;49.396;2022-12-11T09:39:17;-1.10;62.90
67182;DHT22;54114;53.524;49.396;2022-12-11T09:47:11;-1.10;62.00
67182;DHT22;54114;53.524;49.396;2022-12-11T09:49:44;-1.10;61.80
67182;DHT22;54114;53.524;49.396;2022-12-11T09:52:15;-1.10;62.20
67182;DHT22;54114;53.524;49.396;2022-12-11T09:54:49;-1.10;62.30
67182;DHT22;54114;53.524;49.396;2022-12-11T10:03:09;-1.10;63.40
67182;DHT22;54114;53.524;49.396;2022-12-11T10:08:38;-1.10;63.60
67182;DHT22;54114;53.524;49.396;2022-12-11T10:14:07;-1.10;63.90
67182;DHT22;54114;53.524;49.396;2022-12-11T10:19:16;-1.00;65.10
67182;DHT22;54114;53.524;49.396;2022-12-11T10:21:44;-1.00;64.20
67182;DHT22;54114;53.524;49.396;2022-12-11T10:24:18;-1.00;63.80
67182;DHT22;54114;53.524;49.396;2022-12-11T10:26:47;-0.90;63.60
67182;DHT22;54114;53.524;49.396;2022-12-11T10:29:20;-0.90;63.30
67182;DHT22;54114;53.524;49.396;2022-12-11T10:32:04;-0.90;63.10
67182;DHT22;54114;53.524;49.396;2022-12-11T10:34:47;-0.90;62.90
67182;DHT22;54114;53.524;49.396;2022-12-11T10:37:18;-0.90;62.80
67182;DHT22;54114;53.524;49.396;2022-12-11T10:39:44;-0.90;62.90
67182;DHT22;54114;53.524;49.396;2022-12-11T10:42:15;-0.90;62.80
67182;DHT22;54114;53.524;49.396;2022-12-11T10:44:57;-0.90;62.70
67182;DHT22;54114;53.524;49.396;2022-12-11T10:47:25;-0.90;62.40
67182;DHT22;54114;53.524;49.396;2022-12-11T10:49:58;-0.80;62.20
67182;DHT22;54114;53.524;49.396;2022-12-11T10:52:28;-0.90;62.70
67182;DHT22;54114;53.524;49.396;2022-12-11T10:54:58;-0.90;63.00
67182;DHT22;54114;53.524;49.396;2022-12-11T10:57:33;-0.90;63.30
67182;DHT22;54114;53.524;49.396;2022-12-11T11:00:03;-0.90;63.60
67182;DHT22;54114;53.524;49.396;2022-12-11T11:02:32;-0.90;64.20
67182;DHT22;54114;53.524;49.396;2022-12-11T11:05:09;-0.90;64.70
67182;DHT22;54114;53.524;49.396;2022-12-11T11:07:37;-0.90;65.30
67182;DHT22;54114;53.524;49.396;2022-12-11T11:12:40;-0.80;66.60
67182;DHT22;54114;53.524;49.396;2022-12-11T11:15:24;-0.80;66.80
67182;DHT22;54114;53.524;49.396;2022-12-11T11:18:08;-0.80;66.80
67182;DHT22;54114;53.524;49.396;2022-12-11T11:20:36;-0.80;67.90
67182;DHT22;54114;53.524;49.396;2022-12-11T11:23:10;-0.80;67.90
67182;DHT22;54114;53.524;49.396;2022-12-11T11:25:39;-0.80;68.30
67182;DHT22;54114;53.524;49.396;2022-12-11T11:28:32;-0.80;68.50
67182;DHT22;54114;53.524;49.396;2022-12-11T11:31:21;-0.80;68.60
67182;DHT22;54114;53.524;49.396;2022-12-11T11:33:53;-0.70;68.70
67182;DHT22;54114;53.524;49.396;2022-12-11T11:36:23;-0.70;68.50
67182;DHT22;54114;53.524;49.396;2022-12-11T11:44:10;-0.80;67.40
67182;DHT22;54114;53.524;49.396;2022-12-11T11:46:44;-0.80;66.90
67182;DHT22;54114;53.524;49.396;2022-12-11T11:49:39;-0.80;66.50
67182;DHT22;54114;53.524;49.396;2022-12-11T12:00:20;-0.80;64.10
67182;DHT22;54114;53.524;49.396;2022-12-11T12:02:49;-0.80;63.70
67182;DHT22;54114;53.524;49.396;2022-12-11T12:05:40;-0.80;63.10
67182;DHT22;54114;53.524;49.396;2022-12-11T12:08:18;-0.80;62.50
67182;DHT22;54114;53.524;49.396;2022-12-11T12:10:52;-0.80;61.90
67182;DHT22;54114;53.524;49.396;2022-12-11T12:13:22;-0.80;61.70
67182;DHT22;54114;53.524;49.396;2022-12-11T12:15:58;-0.80;61.10
67182;DHT22;54114;53.524;49.396;2022-12-11T12:21:08;-0.90;60.40
67182;DHT22;54114;53.524;49.396;2022-12-11T12:23:46;-0.90;60.10
67182;DHT22;54114;53.524;49.396;2022-12-11T12:35:25;-0.80;59.00
67182;DHT22;54114;53.524;49.396;2022-12-11T12:38:09;-0.80;59.50
67182;DHT22;54114;53.524;49.396;2022-12-11T12:40:52;-0.80;58.60
67182;DHT22;54114;53.524;49.396;2022-12-11T12:44:10;-0.90;58.40
67182;DHT22;54114;53.524;49.396;2022-12-11T12:49:14;-0.90;58.00
67182;DHT22;54114;53.524;49.396;2022-12-11T12:51:42;-0.90;57.80
67182;DHT22;54114;53.524;49.396;2022-12-11T12:54:10;-0.90;57.70
67182;DHT22;54114;53.524;49.396;2022-12-11T12:56:40;-0.80;57.30
67182;DHT22;54114;53.524;49.396;2022-12-11T12:59:19;-0.80;57.00
67182;DHT22;54114;53.524;49.396;2022-12-11T13:01:48;-0.80;57.20
67182;DHT22;54114;53.524;49.396;2022-12-11T13:04:40;-0.80;56.90
67182;DHT22;54114;53.524;49.396;2022-12-11T13:07:27;-0.80;56.60
67182;DHT22;54114;53.524;49.396;2022-12-11T13:09:58;-0.80;56.40
67182;DHT22;54114;53.524;49.396;2022-12-11T13:12:31;-0.80;56.00
67182;DHT22;54114;53.524;49.396;2022-12-11T13:14:59;-0.80;56.00
67182;DHT22;54114;53.524;49.396;2022-12-11T13:17:36;-0.80;55.90
67182;DHT22;54114;53.524;49.396;2022-12-11T13:20:12;-0.70;55.90
67182;DHT22;54114;53.524;49.396;2022-12-11T13:25:50;-0.70;55.20
67182;DHT22;54114;53.524;49.396;2022-12-11T13:28:20;-0.60;55.30
67182;DHT22;54114;53.524;49.396;2022-12-11T13:31:05;-0.60;55.00
67182;DHT22;54114;53.524;49.396;2022-12-11T13:33:51;-0.60;54.90
67182;DHT22;54114;53.524;49.396;2022-12-11T13:36:23;-0.60;54.70
67182;DHT22;54114;53.524;49.396;2022-12-11T13:38:56;-0.60;54.20
67182;DHT22;54114;53.524;49.396;2022-12-11T13:41:26;-0.60;54.10
67182;DHT22;54114;53.524;49.396;2022-12-11T13:43:53;-0.60;54.10
67182;DHT22;54114;53.524;49.396;2022-12-11T13:46:23;-0.60;54.20
67182;DHT22;54114;53.524;49.396;2022-12-11T13:48:52;-0.60;54.20
67182;DHT22;54114;53.524;49.396;2022-12-11T13:51:23;-0.60;54.40
67182;DHT22;54114;53.524;49.396;2022-12-11T13:56:56;-0.50;54.10
67182;DHT22;54114;53.524;49.396;2022-12-11T13:59:28;-0.50;53.80
67182;DHT22;54114;53.524;49.396;2022-12-11T14:02:03;-0.50;53.80
67182;DHT22;54114;53.524;49.396;2022-12-11T14:04:55;-0.40;53.70
67182;DHT22;54114;53.524;49.396;2022-12-11T14:07:30;-0.40;53.70
67182;DHT22;54114;53.524;49.396;2022-12-11T14:10:05;-0.30;54.20
67182;DHT22;54114;53.524;49.396;2022-12-11T14:12:34;-0.30;54.10
67182;DHT22;54114;53.524;49.396;2022-12-11T14:15:01;-0.20;53.80
67182;DHT22;54114;53.524;49.396;2022-12-11T14:17:29;-0.20;53.40
67182;DHT22;54114;53.524;49.396;2022-12-11T14:20:00;-0.10;52.80
67182;DHT22;54114;53.524;49.396;2022-12-11T14:22:30;-0.10;52.50
67182;DHT22;54114;53.524;49.396;2022-12-11T14:24:58;-0.10;52.10
67182;DHT22;54114;53.524;49.396;2022-12-11T14:27:27;-0.10;51.90
67182;DHT22;54114;53.524;49.396;2022-12-11T14:29:54;0.00;51.80
67182;DHT22;54114;53.524;49.396;2022-12-11T14:32:30;0.00;51.30
67182;DHT22;54114;53.524;49.396;2022-12-11T14:34:58;0.00;51.40
67182;DHT22;54114;53.524;49.396;2022-12-11T14:37:25;0.00;51.90
67182;DHT22;54114;53.524;49.396;2022-12-11T14:39:57;0.00;51.10
67182;DHT22;54114;53.524;49.396;2022-12-11T14:42:28;0.00;50.80
67182;DHT22;54114;53.524;49.396;2022-12-11T14:45:06;0.00;50.30
67182;DHT22;54114;53.524;49.396;2022-12-11T14:47:40;0.00;50.00
67182;DHT22;54114;53.524;49.396;2022-12-11T14:52:43;0.00;49.50
67182;DHT22;54114;53.524;49.396;2022-12-11T14:55:17;0.00;49.20
67182;DHT22;54114;53.524;49.396;2022-12-11T14:57:44;-0.10;49.20
67182;DHT22;54114;53.524;49.396;2022-12-11T15:00:21;-0.10;48.90
67182;DHT22;54114;53.524;49.396;2022-12-11T15:05:23;-0.10;48.90
67182;DHT22;54114;53.524;49.396;2022-12-11T15:13:30;-0.10;48.60
67182;DHT22;54114;53.524;49.396;2022-12-11T15:15:58;-0.10;48.40
67182;DHT22;54114;53.524;49.396;2022-12-11T15:18:29;-0.10;48.30
67182;DHT22;54114;53.524;49.396;2022-12-11T15:20:58;-0.20;48.20
67182;DHT22;54114;53.524;49.396;2022-12-11T15:23:26;-0.20;47.70
67182;DHT22;54114;53.524;49.396;2022-12-11T15:25:54;-0.20;47.40
67182;DHT22;54114;53.524;49.396;2022-12-11T15:31:43;-0.20;47.60
67182;DHT22;54114;53.524;49.396;2022-12-11T15:33:50;-0.30;47.60
67182;DHT22;54114;53.524;49.396;2022-12-11T15:38:54;-0.30;47.00
67182;DHT22;54114;53.524;49.396;2022-12-11T15:41:21;-0.30;46.70
67182;DHT22;54114;53.524;49.396;2022-12-11T15:43:51;-0.30;46.90
67182;DHT22;54114;53.524;49.396;2022-12-11T15:46:18;-0.30;47.00
67182;DHT22;54114;53.524;49.396;2022-12-11T15:48:49;-0.30;46.80
67182;DHT22;54114;53.524;49.396;2022-12-11T15:51:15;-0.30;47.00
67182;DHT22;54114;53.524;49.396;2022-12-11T15:53:42;-0.30;47.60
67182;DHT22;54114;53.524;49.396;2022-12-11T15:56:11;-0.30;47.80
67182;DHT22;54114;53.524;49.396;2022-12-11T15:58:39;-0.30;47.80
67182;DHT22;54114;53.524;49.396;2022-12-11T16:01:05;-0.30;47.80
67182;DHT22;54114;53.524;49.396;2022-12-11T16:03:31;-0.30;47.70
67182;DHT22;54114;53.524;49.396;2022-12-11T16:05:58;-0.40;47.60
67182;DHT22;54114;53.524;49.396;2022-12-11T16:08:24;-0.40;47.50
67182;DHT22;54114;53.524;49.396;2022-12-11T16:10:51;-0.40;47.60
67182;DHT22;54114;53.524;49.396;2022-12-11T16:13:19;-0.40;48.10
67182;DHT22;54114;53.524;49.396;2022-12-11T16:15:46;-0.40;48.20
67182;DHT22;54114;53.524;49.396;2022-12-11T16:18:14;-0.40;48.30
67182;DHT22;54114;53.524;49.396;2022-12-11T16:20:43;-0.40;48.90
67182;DHT22;54114;53.524;49.396;2022-12-11T16:23:10;-0.40;49.30
67182;DHT22;54114;53.524;49.396;2022-12-11T16:25:38;-0.40;49.40
67182;DHT22;54114;53.524;49.396;2022-12-11T16:28:09;-0.50;49.70
67182;DHT22;54114;53.524;49.396;2022-12-11T16:30:36;-0.50;49.80
67182;DHT22;54114;53.524;49.396;2022-12-11T16:33:03;-0.50;49.70
67182;DHT22;54114;53.524;49.396;2022-12-11T16:35:30;-0.50;49.60
67182;DHT22;54114;53.524;49.396;2022-12-11T16:37:57;-0.50;49.30
67182;DHT22;54114;53.524;49.396;2022-12-11T16:40:24;-0.50;49.20
67182;DHT22;54114;53.524;49.396;2022-12-11T16:42:50;-0.60;48.70
67182;DHT22;54114;53.524;49.396;2022-12-11T16:45:18;-0.60;48.90
67182;DHT22;54114;53.524;49.396;2022-12-11T16:47:45;-0.60;48.80
67182;DHT22;54114;53.524;49.396;2022-12-11T16:50:13;-0.60;49.00
67182;DHT22;54114;53.524;49.396;2022-12-11T16:52:40;-0.60;49.30
67182;DHT22;54114;53.524;49.396;2022-12-11T16:55:07;-0.60;48.90